Time;durP1;ratioP1;P1;durP2;ratioP2;P2;SDS_P1;SDS_P2;PMS_P1;PMS_P2;Temp;Humidity;BMP_temperature;BMP_pressure;BME280_temperature;BME280_humidity;BME280_pressure;Samples;Min_cycle;Max_cycle;Signal;HPM_P1;HPM_P2
2023/01/11 00:00:25;;;;;;;3.95;1.00;;;15.60;99.10;;;;;;5074676;28;20067;-67
2023/01/11 00:02:55;;;;;;;4.82;1.33;;;15.60;99.00;;;;;;5074833;28;20066;-67
2023/01/11 00:05:21;;;;;;;2.92;0.90;;;15.60;99.10;;;;;;5074628;28;20036;-67
2023/01/11 00:07:47;;;;;;;4.07;1.02;;;15.50;99.10;;;;;;5074754;28;20013;-67
2023/01/11 00:10:12;;;;;;;3.67;1.00;;;15.60;99.10;;;;;;5074520;28;20111;-67
2023/01/11 00:12:38;;;;;;;4.30;1.10;;;15.60;99.10;;;;;;5074388;28;20017;-67
2023/01/11 00:15:03;;;;;;;3.10;0.93;;;15.50;99.00;;;;;;5074409;28;20025;-67
2023/01/11 00:17:29;;;;;;;2.38;1.00;;;15.60;99.00;;;;;;5074651;28;20469;-68
2023/01/11 00:19:55;;;;;;;3.63;0.90;;;15.60;98.90;;;;;;5074426;28;20038;-67
2023/01/11 00:22:21;;;;;;;2.83;1.02;;;15.60;98.90;;;;;;5074229;28;20032;-67
2023/01/11 00:24:46;;;;;;;4.20;0.82;;;15.60;99.00;;;;;;5074696;28;20036;-67
2023/01/11 00:27:12;;;;;;;4.43;1.20;;;15.60;99.00;;;;;;5074036;28;20024;-67
2023/01/11 00:29:37;;;;;;;4.20;1.13;;;15.60;99.00;;;;;;5073579;28;20020;-67
2023/01/11 00:32:03;;;;;;;2.30;0.95;;;15.60;98.90;;;;;;5074111;28;20039;-67
2023/01/11 00:34:28;;;;;;;1.85;0.90;;;15.60;98.90;;;;;;5074321;28;20549;-67
2023/01/11 00:36:54;;;;;;;3.00;1.23;;;15.70;99.00;;;;;;5073911;28;20036;-68
2023/01/11 00:39:19;;;;;;;3.72;0.70;;;15.60;98.90;;;;;;5074099;28;20025;-68
2023/01/11 00:50:02;;;;;;;2.65;0.98;;;15.60;99.00;;;;;;5073881;28;20397;-68
2023/01/11 00:52:27;;;;;;;2.67;0.57;;;15.70;98.90;;;;;;5073791;28;20025;-68
2023/01/11 00:54:53;;;;;;;3.55;0.80;;;15.60;98.90;;;;;;5073337;28;20127;-68
2023/01/11 00:57:19;;;;;;;5.50;0.70;;;15.60;98.90;;;;;;5073030;28;20032;-68
2023/01/11 00:59:44;;;;;;;2.90;0.57;;;15.70;98.90;;;;;;5072425;28;20025;-68
2023/01/11 01:02:11;;;;;;;3.20;0.73;;;15.60;98.80;;;;;;5073370;28;20024;-68
2023/01/11 01:04:37;;;;;;;1.92;0.73;;;15.70;98.90;;;;;;5073559;28;20121;-68
2023/01/11 01:07:04;;;;;;;2.22;0.68;;;15.70;98.90;;;;;;5073807;28;20021;-68
2023/01/11 01:09:30;;;;;;;2.58;1.02;;;15.60;98.80;;;;;;5071921;28;20472;-68
2023/01/11 01:11:55;;;;;;;4.57;0.77;;;15.60;98.80;;;;;;5073439;28;20027;-68
2023/01/11 01:14:28;;;;;;;3.55;0.68;;;15.70;98.90;;;;;;5073252;28;20028;-68
2023/01/11 01:17:08;;;;;;;2.67;0.82;;;15.70;98.90;;;;;;5073600;28;20048;-68
2023/01/11 01:19:36;;;;;;;1.80;0.80;;;15.70;98.90;;;;;;5073478;28;20028;-68
2023/01/11 01:22:02;;;;;;;2.83;0.55;;;15.70;98.90;;;;;;5073487;28;20024;-68
2023/01/11 01:24:29;;;;;;;2.58;0.73;;;15.60;98.90;;;;;;5073287;28;20392;-68
2023/01/11 01:26:58;;;;;;;2.38;0.70;;;15.70;99.00;;;;;;5073107;28;20458;-68
2023/01/11 01:29:24;;;;;;;2.83;0.70;;;15.70;99.00;;;;;;5073035;28;20028;-68
2023/01/11 01:31:50;;;;;;;3.08;0.80;;;15.60;98.90;;;;;;5073138;28;20401;-68
2023/01/11 01:34:16;;;;;;;2.40;0.70;;;15.60;99.20;;;;;;5072995;28;20481;-67
2023/01/11 01:36:42;;;;;;;1.38;0.57;;;15.60;98.90;;;;;;5073104;28;20055;-68
2023/01/11 01:39:09;;;;;;;2.10;0.80;;;15.70;98.90;;;;;;5072698;28;20017;-68
2023/01/11 01:41:35;;;;;;;3.80;0.57;;;15.70;98.90;;;;;;5071680;28;20032;-68
2023/01/11 01:44:03;;;;;;;1.23;0.40;;;15.70;98.90;;;;;;5072738;28;20028;-68
2023/01/11 01:46:30;;;;;;;3.45;0.60;;;15.60;98.90;;;;;;5072670;28;20039;-68
2023/01/11 01:49:01;;;;;;;2.25;0.63;;;15.70;99.00;;;;;;5072697;28;20032;-68
2023/01/11 01:51:32;;;;;;;2.28;0.60;;;15.70;99.00;;;;;;5072782;28;20017;-67
2023/01/11 01:54:04;;;;;;;3.05;0.43;;;15.70;98.90;;;;;;5072389;28;20028;-68
2023/01/11 01:56:44;;;;;;;2.10;0.52;;;15.70;98.90;;;;;;5072684;28;20055;-68
2023/01/11 01:59:12;;;;;;;2.47;0.60;;;15.70;99.00;;;;;;5072751;28;20029;-67
2023/01/11 02:01:48;;;;;;;2.10;0.63;;;15.70;98.90;;;;;;5072695;28;20021;-68
2023/01/11 02:04:37;;;;;;;2.40;0.50;;;15.70;98.90;;;;;;5072419;28;20043;-67
2023/01/11 02:07:10;;;;;;;1.95;0.70;;;15.70;99.00;;;;;;5072582;28;20031;-68
2023/01/11 02:10:03;;;;;;;1.10;0.55;;;15.70;98.90;;;;;;5072266;28;20044;-67
2023/01/11 02:12:33;;;;;;;1.92;0.50;;;15.70;99.00;;;;;;5072489;28;20029;-67
2023/01/11 02:15:00;;;;;;;1.48;0.20;;;15.70;99.00;;;;;;5072364;28;20051;-68
2023/01/11 02:17:25;;;;;;;1.65;0.40;;;15.70;98.90;;;;;;5072493;28;20065;-67
2023/01/11 02:20:00;;;;;;;1.98;0.50;;;15.70;99.00;;;;;;5072569;28;20060;-68
2023/01/11 02:22:44;;;;;;;1.95;0.40;;;15.70;99.00;;;;;;5072351;28;20039;-68
2023/01/11 02:25:12;;;;;;;2.47;0.50;;;15.70;99.00;;;;;;5072520;28;20040;-67
2023/01/11 02:28:00;;;;;;;2.78;0.40;;;15.70;99.00;;;;;;5072262;28;20531;-68
2023/01/11 02:30:34;;;;;;;2.92;0.60;;;15.70;99.00;;;;;;5072436;28;20105;-68
2023/01/11 02:33:31;;;;;;;1.83;0.38;;;15.70;99.00;;;;;;5072262;28;20389;-68
2023/01/11 02:35:57;;;;;;;3.10;0.30;;;15.70;99.00;;;;;;5071091;28;20117;-68
2023/01/11 02:38:32;;;;;;;1.23;0.32;;;15.70;99.00;;;;;;5072010;28;20048;-68
2023/01/11 02:41:17;;;;;;;1.88;0.38;;;15.70;99.00;;;;;;5072638;28;20100;-68
2023/01/11 02:46:45;;;;;;;2.20;0.50;;;15.70;99.10;;;;;;5072398;28;20079;-67
2023/01/11 02:49:32;;;;;;;1.20;0.30;;;15.70;99.10;;;;;;5072286;28;20020;-68
2023/01/11 02:52:11;;;;;;;1.85;0.20;;;15.70;99.00;;;;;;5071510;28;20385;-67
2023/01/11 02:54:41;;;;;;;1.10;0.40;;;15.70;99.10;;;;;;5071922;28;20035;-68
2023/01/11 02:57:09;;;;;;;1.75;0.40;;;15.70;99.10;;;;;;5072272;28;20024;-68
2023/01/11 02:59:36;;;;;;;1.00;0.25;;;15.70;99.10;;;;;;5072105;28;20052;-68
2023/01/11 03:02:02;;;;;;;1.60;0.40;;;15.70;99.10;;;;;;5072192;28;20017;-68
2023/01/11 03:04:34;;;;;;;1.45;0.20;;;15.70;99.20;;;;;;5071898;28;20552;-68
2023/01/11 03:07:18;;;;;;;1.08;0.30;;;15.70;99.30;;;;;;5071858;28;20095;-68
2023/01/11 03:09:55;;;;;;;1.67;0.40;;;15.70;99.10;;;;;;5071846;28;20111;-68
2023/01/11 03:12:56;;;;;;;1.48;0.30;;;15.70;99.10;;;;;;5072019;28;20035;-67
2023/01/11 03:15:34;;;;;;;1.48;0.40;;;15.70;99.20;;;;;;5042990;28;20024;-68
2023/01/11 03:18:14;;;;;;;1.30;0.30;;;15.80;99.10;;;;;;5072019;28;20104;-68
2023/01/11 03:20:49;;;;;;;0.80;0.17;;;15.70;99.20;;;;;;5074712;28;20032;-68
2023/01/11 03:23:24;;;;;;;2.58;0.40;;;15.70;99.10;;;;;;5074404;28;20029;-68
2023/01/11 03:26:07;;;;;;;2.22;0.30;;;15.70;99.20;;;;;;5068317;28;20063;-69
2023/01/11 03:28:44;;;;;;;1.38;0.25;;;15.70;99.20;;;;;;5075160;28;20029;-68
2023/01/11 03:31:16;;;;;;;1.83;0.25;;;15.70;99.10;;;;;;5073868;28;20033;-68
2023/01/11 03:34:06;;;;;;;1.92;0.40;;;15.70;99.10;;;;;;5075225;28;20393;-68
2023/01/11 03:36:37;;;;;;;1.25;0.47;;;15.70;99.10;;;;;;5074755;28;20032;-70
2023/01/11 03:39:28;;;;;;;0.98;0.25;;;15.70;99.10;;;;;;5075569;28;20055;-68
2023/01/11 03:41:58;;;;;;;1.08;0.28;;;15.70;99.20;;;;;;5075314;28;20032;-68
2023/01/11 03:44:26;;;;;;;0.88;0.38;;;15.70;99.10;;;;;;5075067;28;20123;-68
2023/01/11 03:46:58;;;;;;;1.08;0.30;;;15.70;99.20;;;;;;5075188;28;20020;-67
2023/01/11 03:49:35;;;;;;;1.00;0.30;;;15.70;99.20;;;;;;5074976;28;20026;-68
2023/01/11 03:52:02;;;;;;;2.20;0.35;;;15.70;99.20;;;;;;5075116;28;20024;-67
2023/01/11 03:54:29;;;;;;;0.90;0.30;;;15.70;99.20;;;;;;5074969;28;20158;-67
2023/01/11 03:57:23;;;;;;;1.33;0.30;;;15.70;99.20;;;;;;5074897;28;20099;-67
2023/01/11 03:59:49;;;;;;;1.70;0.40;;;15.70;99.60;;;;;;5073826;28;20375;-67
2023/01/11 04:02:23;;;;;;;1.10;0.20;;;15.70;99.20;;;;;;5074864;28;20024;-68
2023/01/11 04:04:49;;;;;;;0.98;0.22;;;15.70;99.30;;;;;;5074436;28;20127;-68
2023/01/11 04:07:15;;;;;;;1.17;0.40;;;15.70;99.20;;;;;;5074748;28;20100;-68
2023/01/11 04:09:41;;;;;;;0.60;0.20;;;15.70;99.30;;;;;;5074635;28;20376;-68
2023/01/11 04:12:07;;;;;;;1.70;0.30;;;15.70;99.20;;;;;;5074553;28;20029;-68
2023/01/11 04:14:33;;;;;;;1.67;0.40;;;15.70;99.20;;;;;;5074576;28;20021;-68
2023/01/11 04:16:58;;;;;;;1.33;0.28;;;15.70;99.60;;;;;;5073418;28;20021;-68
2023/01/11 04:19:24;;;;;;;1.67;0.20;;;15.70;99.30;;;;;;5074325;28;20056;-68
2023/01/11 04:21:49;;;;;;;1.63;0.15;;;15.70;99.20;;;;;;5074126;28;20060;-68
2023/01/11 04:24:17;;;;;;;0.40;0.20;;;15.70;99.30;;;;;;5074326;28;20437;-68
2023/01/11 04:26:43;;;;;;;0.68;0.28;;;15.70;99.40;;;;;;5072701;28;20029;-68
2023/01/11 04:29:08;;;;;;;0.85;0.20;;;15.70;99.40;;;;;;5055453;28;20107;-67
2023/01/11 04:31:34;;;;;;;1.77;0.30;;;15.60;99.40;;;;;;5063644;28;20036;-68
2023/01/11 04:33:59;;;;;;;1.52;0.30;;;15.60;99.40;;;;;;5074379;28;20028;-67
2023/01/11 04:36:25;;;;;;;1.20;0.40;;;15.60;99.40;;;;;;5073779;28;20021;-68
2023/01/11 04:38:50;;;;;;;2.08;0.30;;;15.60;99.30;;;;;;5074044;28;20027;-67
2023/01/11 04:44:00;;;;;;;1.77;0.50;;;15.60;99.40;;;;;;5073942;28;20047;-68
2023/01/11 04:46:25;;;;;;;2.05;0.60;;;15.60;99.50;;;;;;5073906;28;20017;-68
2023/01/11 04:48:51;;;;;;;1.05;0.30;;;15.60;99.60;;;;;;5073546;28;20029;-68
2023/01/11 04:51:17;;;;;;;1.40;0.38;;;15.60;99.60;;;;;;5073748;28;20543;-68
2023/01/11 04:53:45;;;;;;;3.22;0.80;;;15.60;99.50;;;;;;5074286;28;20489;-68
2023/01/11 04:56:11;;;;;;;1.23;0.40;;;15.60;99.50;;;;;;5073625;28;20115;-68
2023/01/11 04:58:36;;;;;;;1.48;0.43;;;15.60;99.40;;;;;;5073670;28;20048;-67
2023/01/11 05:01:15;;;;;;;1.73;0.70;;;15.60;99.40;;;;;;5073662;28;20020;-67
2023/01/11 05:03:41;;;;;;;1.85;0.47;;;15.50;99.50;;;;;;5073509;28;20512;-67
2023/01/11 05:06:07;;;;;;;1.08;0.50;;;15.60;99.30;;;;;;5073501;28;20025;-67
2023/01/11 05:08:33;;;;;;;3.90;0.95;;;15.60;99.40;;;;;;5073357;28;20024;-67
2023/01/11 05:11:01;;;;;;;3.05;0.57;;;15.60;99.40;;;;;;5073546;28;20108;-68
2023/01/11 05:13:42;;;;;;;2.10;0.70;;;15.60;99.40;;;;;;5073446;28;20066;-67
2023/01/11 05:16:22;;;;;;;4.00;1.00;;;15.60;99.40;;;;;;5073050;28;20078;-67
2023/01/11 05:18:53;;;;;;;7.22;1.33;;;15.50;99.40;;;;;;5073458;28;20021;-69
2023/01/11 05:21:22;;;;;;;5.47;1.05;;;15.60;97.70;;;;;;5073485;28;20028;-68
2023/01/11 05:23:49;;;;;;;4.97;1.08;;;15.70;96.60;;;;;;5073590;28;20416;-70
2023/01/11 05:26:21;;;;;;;6.45;1.50;;;15.70;96.20;;;;;;5073355;28;20042;-68
2023/01/11 05:28:47;;;;;;;9.05;1.90;;;15.80;95.80;;;;;;5071730;28;20469;-68
2023/01/11 05:31:13;;;;;;;1.80;0.57;;;15.90;95.30;;;;;;5071469;28;20028;-68
2023/01/11 05:33:39;;;;;;;4.32;1.38;;;15.90;95.20;;;;;;5073037;28;20025;-68
2023/01/11 05:36:07;;;;;;;5.15;0.80;;;15.90;95.10;;;;;;5073154;28;20020;-68
2023/01/11 05:38:34;;;;;;;7.20;2.03;;;15.90;95.00;;;;;;5072935;28;20024;-68
2023/01/11 05:41:05;;;;;;;11.60;3.28;;;15.90;95.00;;;;;;5073156;28;20028;-68
2023/01/11 05:43:31;;;;;;;3.80;1.17;;;15.90;95.20;;;;;;5065587;28;20045;-68
2023/01/11 05:45:58;;;;;;;3.10;1.30;;;15.90;94.90;;;;;;5069986;28;20504;-68
2023/01/11 05:48:24;;;;;;;3.67;0.82;;;16.00;95.00;;;;;;5069994;28;20099;-67
2023/01/11 05:50:51;;;;;;;7.97;2.28;;;15.90;95.10;;;;;;5067305;28;20109;-68
2023/01/11 05:53:17;;;;;;;5.50;1.80;;;15.90;95.20;;;;;;5070640;28;20032;-68
2023/01/11 05:55:57;;;;;;;4.90;1.50;;;15.90;95.20;;;;;;5068184;28;20021;-68
2023/01/11 05:58:25;;;;;;;4.65;1.27;;;16.00;95.10;;;;;;5072624;28;20111;-68
2023/01/11 06:00:52;;;;;;;3.33;1.08;;;16.00;95.00;;;;;;5063513;28;20108;-68
2023/01/11 06:03:18;;;;;;;4.18;0.90;;;16.00;95.40;;;;;;5069335;28;20066;-68
2023/01/11 06:05:44;;;;;;;3.45;1.33;;;15.90;95.50;;;;;;5069368;28;20032;-68
2023/01/11 06:08:10;;;;;;;19.42;3.45;;;16.00;95.70;;;;;;5070664;28;20058;-68
2023/01/11 06:10:36;;;;;;;12.82;2.33;;;15.80;97.20;;;;;;5072129;28;20063;-68
2023/01/11 06:15:45;;;;;;;11.23;2.33;;;15.70;98.00;;;;;;5072343;28;20032;-68
2023/01/11 06:18:11;;;;;;;12.60;2.47;;;15.60;97.80;;;;;;5071455;28;20024;-67
2023/01/11 06:20:37;;;;;;;7.97;2.22;;;15.50;98.00;;;;;;5072509;28;20016;-67
2023/01/11 06:23:03;;;;;;;11.45;2.83;;;15.50;98.10;;;;;;5072333;28;20162;-68
2023/01/11 06:25:29;;;;;;;14.27;3.78;;;15.40;98.10;;;;;;5069027;28;20119;-68
2023/01/11 06:27:55;;;;;;;15.95;3.40;;;15.40;98.10;;;;;;5066517;28;20028;-68
2023/01/11 06:30:20;;;;;;;12.88;3.03;;;15.40;98.10;;;;;;5062316;28;20126;-66
2023/01/11 06:32:46;;;;;;;11.07;2.72;;;15.40;98.10;;;;;;5059256;28;20056;-67
2023/01/11 06:35:12;;;;;;;13.43;2.83;;;15.30;98.20;;;;;;5061224;28;20028;-67
2023/01/11 06:37:37;;;;;;;12.48;3.28;;;15.40;98.40;;;;;;5064294;28;20389;-67
2023/01/11 06:40:03;;;;;;;10.80;2.97;;;15.30;98.30;;;;;;5065833;28;20029;-67
2023/01/11 06:42:29;;;;;;;13.35;2.60;;;15.40;98.40;;;;;;5067811;28;20029;-67
2023/01/11 06:44:54;;;;;;;14.50;3.28;;;15.30;98.60;;;;;;5065167;28;20033;-67
2023/01/11 06:47:20;;;;;;;11.30;2.80;;;15.40;98.70;;;;;;5070435;28;20032;-67
2023/01/11 06:49:45;;;;;;;11.52;2.70;;;15.30;98.80;;;;;;5070317;28;20047;-68
2023/01/11 06:52:11;;;;;;;11.27;2.45;;;15.40;98.80;;;;;;5066206;28;20028;-68
2023/01/11 06:54:36;;;;;;;12.27;2.83;;;15.40;98.50;;;;;;5071641;28;20397;-67
2023/01/11 06:57:02;;;;;;;12.77;2.88;;;15.40;98.50;;;;;;5075222;28;20034;-67
2023/01/11 06:59:27;;;;;;;11.65;2.60;;;15.30;98.60;;;;;;5074789;28;20029;-67
2023/01/11 07:01:53;;;;;;;15.68;3.63;;;15.40;98.70;;;;;;5074394;28;20017;-66
2023/01/11 07:04:20;;;;;;;12.80;2.65;;;15.20;98.30;;;;;;5072621;28;20486;-67
2023/01/11 07:06:46;;;;;;;11.70;2.20;;;15.30;99.10;;;;;;5070030;28;20591;-67
2023/01/11 07:09:11;;;;;;;13.65;3.15;;;15.40;99.70;;;;;;5072619;28;20024;-68
2023/01/11 07:11:38;;;;;;;14.07;3.13;;;15.50;99.80;;;;;;5075504;28;20385;-68
2023/01/11 07:14:04;;;;;;;17.63;3.15;;;15.50;99.10;;;;;;5075230;28;20107;-67
2023/01/11 07:16:30;;;;;;;15.63;3.10;;;15.50;98.50;;;;;;5066278;28;20013;-68
2023/01/11 07:18:55;;;;;;;10.02;3.10;;;15.50;98.40;;;;;;5071048;28;20482;-68
2023/01/11 07:21:21;;;;;;;14.38;3.38;;;15.50;98.30;;;;;;5069566;28;20622;-67
2023/01/11 07:23:47;;;;;;;15.48;2.47;;;15.40;98.50;;;;;;5074921;28;20409;-67
2023/01/11 07:26:15;;;;;;;11.98;3.15;;;15.40;98.50;;;;;;5074634;28;20027;-67
2023/01/11 07:28:42;;;;;;;13.27;3.42;;;15.40;98.70;;;;;;5075108;28;20024;-67
2023/01/11 07:31:07;;;;;;;15.45;2.83;;;15.50;98.90;;;;;;5074056;28;20032;-68
2023/01/11 07:33:33;;;;;;;15.88;3.22;;;15.40;98.70;;;;;;5075517;28;20024;-67
2023/01/11 07:35:59;;;;;;;16.77;3.20;;;15.40;98.80;;;;;;5075222;28;20071;-67
2023/01/11 07:38:28;;;;;;;11.73;2.90;;;15.40;98.70;;;;;;5075554;28;20038;-68
2023/01/11 07:40:53;;;;;;;12.95;3.03;;;15.30;98.80;;;;;;5075042;28;20024;-67
2023/01/11 07:43:21;;;;;;;12.45;3.05;;;15.50;99.20;;;;;;5074966;28;20029;-68
2023/01/11 07:45:49;;;;;;;12.38;2.88;;;15.40;99.00;;;;;;5075145;28;20025;-68
2023/01/11 07:48:19;;;;;;;12.18;2.70;;;15.50;98.90;;;;;;5075052;28;20094;-67
2023/01/11 07:50:46;;;;;;;16.13;3.17;;;15.40;98.70;;;;;;5075013;28;20017;-67
2023/01/11 07:53:12;;;;;;;11.82;2.10;;;15.40;98.70;;;;;;5075202;28;20052;-67
2023/01/11 07:55:38;;;;;;;17.23;3.13;;;15.40;98.80;;;;;;5074569;28;20096;-67
2023/01/11 07:58:05;;;;;;;16.95;3.00;;;15.30;98.30;;;;;;5075087;28;20024;-67
2023/01/11 08:00:30;;;;;;;13.48;2.83;;;15.40;98.60;;;;;;5075274;28;20402;-68
2023/01/11 08:02:56;;;;;;;11.48;2.47;;;15.40;98.70;;;;;;5074669;28;20477;-67
2023/01/11 08:05:22;;;;;;;11.75;2.80;;;15.50;98.70;;;;;;5074336;28;20029;-67
2023/01/11 08:07:48;;;;;;;10.85;2.80;;;15.40;98.60;;;;;;5074862;28;20454;-68
2023/01/11 08:10:14;;;;;;;8.90;2.75;;;15.40;98.50;;;;;;5074422;28;20032;-67
2023/01/11 08:15:29;;;;;;;9.40;2.83;;;15.30;98.30;;;;;;5074575;28;20035;-67
2023/01/11 08:17:54;;;;;;;11.57;2.85;;;15.20;98.00;;;;;;5074903;28;20103;-67
2023/01/11 08:20:20;;;;;;;11.85;2.65;;;15.30;98.70;;;;;;5074454;28;20500;-68
2023/01/11 08:22:47;;;;;;;12.57;3.00;;;15.30;98.50;;;;;;5074479;28;20032;-67
2023/01/11 08:25:12;;;;;;;12.88;3.28;;;15.30;98.90;;;;;;5073773;28;20032;-67
2023/01/11 08:27:38;;;;;;;12.10;3.28;;;15.30;98.50;;;;;;5074412;28;20466;-67
2023/01/11 08:30:04;;;;;;;14.77;2.67;;;15.30;98.60;;;;;;5072998;28;20028;-67
2023/01/11 08:32:29;;;;;;;15.10;3.05;;;15.20;98.50;;;;;;5074298;28;20085;-67
2023/01/11 08:34:55;;;;;;;10.25;2.97;;;15.30;98.60;;;;;;5074421;28;20369;-67
2023/01/11 08:37:20;;;;;;;13.88;2.63;;;15.30;98.60;;;;;;5073935;28;20156;-67
2023/01/11 08:39:47;;;;;;;13.95;3.10;;;15.30;98.60;;;;;;5073873;28;20017;-67
2023/01/11 08:42:13;;;;;;;12.70;2.47;;;15.30;98.70;;;;;;5074175;28;20025;-67
2023/01/11 08:44:38;;;;;;;13.07;3.13;;;15.10;98.20;;;;;;5073971;28;20047;-67
2023/01/11 08:47:04;;;;;;;13.30;2.60;;;15.20;98.00;;;;;;5074045;28;20103;-67
2023/01/11 08:49:29;;;;;;;17.20;3.15;;;15.10;98.10;;;;;;5073989;28;20473;-67
2023/01/11 08:51:55;;;;;;;13.45;2.85;;;15.10;98.00;;;;;;5073756;28;20063;-67
2023/01/11 08:54:21;;;;;;;9.82;2.60;;;15.10;98.00;;;;;;5073363;28;20039;-67
2023/01/11 08:56:47;;;;;;;10.20;2.40;;;15.10;98.10;;;;;;5072414;28;20126;-67
2023/01/11 08:59:12;;;;;;;12.45;2.88;;;15.00;98.20;;;;;;5073717;28;20036;-66
2023/01/11 09:01:38;;;;;;;11.32;2.72;;;15.00;98.20;;;;;;5073581;28;20048;-67
2023/01/11 09:04:04;;;;;;;11.68;2.97;;;15.20;98.50;;;;;;5073658;28;20494;-67
2023/01/11 09:06:29;;;;;;;18.33;3.28;;;15.20;99.00;;;;;;5073973;28;20138;-67
2023/01/11 09:08:55;;;;;;;13.80;2.78;;;15.00;98.40;;;;;;5073298;28;20104;-67
2023/01/11 09:14:05;;;;;;;12.45;3.25;;;15.10;98.90;;;;;;5073719;28;20106;-67
2023/01/11 09:16:30;;;;;;;10.90;2.55;;;15.10;98.60;;;;;;5072758;28;20478;-67
2023/01/11 09:18:56;;;;;;;14.27;2.97;;;15.20;98.80;;;;;;5073461;28;20025;-67
2023/01/11 09:21:22;;;;;;;11.02;2.78;;;15.20;98.60;;;;;;5073250;28;20500;-67
2023/01/11 09:23:48;;;;;;;12.75;2.58;;;15.30;98.90;;;;;;5072786;28;20115;-67
2023/01/11 09:26:14;;;;;;;10.95;2.50;;;15.30;99.20;;;;;;5073085;28;20536;-67
2023/01/11 09:28:39;;;;;;;11.38;2.58;;;15.40;99.10;;;;;;5073307;28;20052;-67
2023/01/11 09:31:06;;;;;;;10.63;2.25;;;15.40;99.20;;;;;;5069132;28;20071;-67
2023/01/11 09:33:33;;;;;;;14.27;2.30;;;15.40;99.10;;;;;;5071913;28;20012;-67
2023/01/11 09:36:00;;;;;;;8.65;2.20;;;15.40;99.30;;;;;;5072305;28;20025;-67
2023/01/11 09:38:28;;;;;;;13.63;3.00;;;15.40;99.40;;;;;;5071427;28;20013;-67
2023/01/11 09:41:04;;;;;;;14.15;2.80;;;15.40;99.10;;;;;;5071846;28;20027;-67
2023/01/11 09:43:31;;;;;;;10.80;2.45;;;15.40;99.30;;;;;;5071997;28;20025;-67
2023/01/11 09:46:03;;;;;;;9.98;2.13;;;15.50;99.30;;;;;;5072470;28;20029;-67
2023/01/11 09:48:42;;;;;;;14.02;3.00;;;15.50;99.40;;;;;;5071823;28;20016;-67
2023/01/11 09:51:12;;;;;;;12.27;2.92;;;15.40;99.10;;;;;;5071526;28;20082;-67
2023/01/11 09:53:39;;;;;;;10.82;2.08;;;15.40;99.30;;;;;;5071758;28;20103;-67
2023/01/11 09:56:11;;;;;;;13.55;2.55;;;15.50;99.50;;;;;;5071970;28;20077;-67
2023/01/11 09:58:45;;;;;;;9.55;2.60;;;15.50;99.20;;;;;;5071536;28;20013;-67
2023/01/11 10:01:29;;;;;;;13.05;3.22;;;15.50;99.40;;;;;;5070911;28;20554;-67
2023/01/11 10:04:07;;;;;;;11.52;2.65;;;15.50;99.30;;;;;;5071367;28;20040;-67
2023/01/11 10:06:51;;;;;;;13.60;3.25;;;15.50;99.30;;;;;;5072166;28;20047;-68
2023/01/11 10:09:40;;;;;;;12.65;2.10;;;15.60;99.50;;;;;;5069923;28;20051;-67
2023/01/11 10:12:05;;;;;;;9.00;2.60;;;15.50;99.00;;;;;;5071506;28;20020;-66
2023/01/11 10:14:37;;;;;;;13.90;2.55;;;15.50;98.90;;;;;;5071613;28;20032;-67
2023/01/11 10:17:44;;;;;;;10.85;2.28;;;15.60;98.90;;;;;;5071396;28;20103;-67
2023/01/11 10:20:34;;;;;;;17.73;3.45;;;15.60;98.30;;;;;;5050884;28;20043;-67
2023/01/11 10:23:17;;;;;;;12.35;2.53;;;15.60;98.10;;;;;;5071044;28;20074;-68
2023/01/11 10:25:50;;;;;;;13.63;2.80;;;15.60;97.90;;;;;;5072029;28;20470;-67
2023/01/11 10:28:34;;;;;;;11.38;2.80;;;15.60;97.80;;;;;;5072694;28;20078;-67
2023/01/11 10:31:25;;;;;;;14.13;3.03;;;15.60;97.70;;;;;;5075001;28;20044;-66
2023/01/11 10:34:14;;;;;;;12.82;2.38;;;15.60;97.40;;;;;;5074147;28;20032;-66
2023/01/11 10:40:18;;;;;;;13.13;2.92;;;15.70;97.20;;;;;;5075614;28;20157;-67
2023/01/11 10:43:11;;;;;;;9.40;2.35;;;15.70;97.10;;;;;;5070811;28;20045;-66
2023/01/11 10:45:57;;;;;;;16.30;3.38;;;15.70;97.00;;;;;;5075258;28;20108;-67
2023/01/11 10:48:33;;;;;;;12.43;3.10;;;15.70;97.00;;;;;;5075516;28;20020;-66
2023/01/11 10:51:10;;;;;;;12.35;3.10;;;15.70;97.00;;;;;;5074907;28;20103;-67
2023/01/11 10:53:39;;;;;;;18.40;3.47;;;15.70;97.00;;;;;;5074675;28;20036;-67
2023/01/11 10:56:32;;;;;;;12.15;3.35;;;15.70;96.90;;;;;;5075307;28;20025;-68
2023/01/11 10:59:16;;;;;;;;;;;15.70;96.90;;;;;;5075264;28;20431;-67
2023/01/11 11:02:12;;;;;;;18.33;3.70;;;15.80;96.80;;;;;;5074364;28;19926;-68
2023/01/11 11:04:56;;;;;;;16.17;3.45;;;15.80;96.80;;;;;;5073978;28;20052;-68
2023/01/11 11:07:42;;;;;;;17.23;3.67;;;15.80;96.70;;;;;;5075069;28;20029;-67
2023/01/11 11:10:20;;;;;;;12.07;3.08;;;15.80;96.40;;;;;;5075010;28;20028;-68
2023/01/11 11:13:25;;;;;;;15.38;3.38;;;15.80;96.30;;;;;;5074437;28;20028;-67
2023/01/11 11:16:20;;;;;;;13.35;3.22;;;15.90;96.30;;;;;;5073893;28;20051;-68
2023/01/11 11:18:47;;;;;;;10.98;3.20;;;15.90;96.30;;;;;;5070186;28;20047;-67
2023/01/11 11:21:36;;;;;;;13.27;2.83;;;15.80;96.10;;;;;;5069990;28;20024;-67
2023/01/11 11:24:23;;;;;;;11.75;3.22;;;15.90;96.00;;;;;;5068623;28;20086;-66
2023/01/11 11:26:56;;;;;;;18.30;3.58;;;15.90;95.80;;;;;;5065577;28;20024;-66
2023/01/11 11:29:27;;;;;;;12.07;3.45;;;15.90;95.90;;;;;;5068153;28;20439;-66
2023/01/11 11:31:54;;;;;;;16.05;3.78;;;15.90;95.80;;;;;;5067641;28;20036;-67
2023/01/11 11:34:21;;;;;;;14.90;3.58;;;15.90;95.70;;;;;;5073440;28;20025;-67
2023/01/11 11:36:48;;;;;;;16.08;3.60;;;15.90;95.80;;;;;;5073196;28;20158;-68
2023/01/11 11:39:20;;;;;;;21.48;4.60;;;15.90;95.80;;;;;;5071214;28;20024;-67
2023/01/11 11:41:50;;;;;;;21.02;4.25;;;15.90;95.90;;;;;;5069699;28;20078;-68
2023/01/11 11:44:23;;;;;;;15.90;3.92;;;15.80;95.30;;;;;;5072121;28;20043;-67
2023/01/11 11:47:05;;;;;;;17.15;3.60;;;15.80;95.90;;;;;;5073898;28;20025;-67
2023/01/11 11:49:35;;;;;;;25.45;4.43;;;16.00;96.20;;;;;;5071348;28;20027;-66
2023/01/11 11:52:02;;;;;;;20.52;3.95;;;16.00;96.30;;;;;;5070761;28;20021;-67
2023/01/11 11:54:40;;;;;;;17.35;3.85;;;16.00;96.50;;;;;;5072724;28;20188;-68
2023/01/11 11:57:13;;;;;;;22.33;3.72;;;16.00;96.40;;;;;;5065986;28;20025;-68
2023/01/11 11:59:45;;;;;;;21.27;5.00;;;16.00;96.70;;;;;;5071310;28;20496;-68
2023/01/11 12:02:23;;;;;;;24.27;4.45;;;16.10;96.80;;;;;;5067263;28;20113;-68
2023/01/11 12:04:49;;;;;;;19.38;4.28;;;16.00;96.50;;;;;;5067377;28;20125;-67
2023/01/11 12:07:19;;;;;;;23.05;4.35;;;16.10;96.70;;;;;;5070951;28;20047;-68
2023/01/11 12:09:54;;;;;;;19.17;4.18;;;16.10;96.50;;;;;;5070472;28;20021;-68
2023/01/11 12:12:21;;;;;;;19.38;3.72;;;16.10;96.40;;;;;;5068276;28;20021;-68
2023/01/11 12:15:05;;;;;;;21.90;4.18;;;16.20;96.50;;;;;;5070099;28;20374;-68
2023/01/11 12:17:30;;;;;;;18.48;4.28;;;16.20;96.50;;;;;;5067602;28;20232;-68
2023/01/11 12:19:56;;;;;;;14.60;3.83;;;16.20;96.50;;;;;;5070916;28;20532;-68
2023/01/11 12:22:24;;;;;;;17.90;4.53;;;16.20;96.30;;;;;;5071959;28;20470;-68
2023/01/11 12:25:06;;;;;;;22.67;4.93;;;16.20;96.40;;;;;;5066112;28;20067;-68
2023/01/11 12:27:37;;;;;;;24.75;4.07;;;16.20;96.30;;;;;;5064604;28;20460;-68
2023/01/11 12:30:24;;;;;;;14.75;4.15;;;16.20;96.70;;;;;;5058462;28;20127;-68
2023/01/11 12:33:04;;;;;;;18.70;4.60;;;16.10;96.40;;;;;;5060882;28;20061;-67
2023/01/11 12:35:49;;;;;;;18.30;4.28;;;16.00;96.50;;;;;;5061649;28;20021;-67
2023/01/11 12:38:32;;;;;;;19.30;4.35;;;16.20;96.80;;;;;;5063671;28;20166;-69
2023/01/11 12:41:00;;;;;;;19.63;4.40;;;16.20;96.80;;;;;;5064184;28;20420;-68
2023/01/11 12:43:52;;;;;;;22.13;3.72;;;16.20;96.60;;;;;;5067636;28;20033;-67
2023/01/11 12:46:45;;;;;;;20.02;3.78;;;16.20;96.50;;;;;;5061814;28;20043;-66
2023/01/11 12:49:37;;;;;;;21.05;3.83;;;16.00;96.00;;;;;;5061408;28;20117;-68
2023/01/11 12:52:12;;;;;;;27.55;4.60;;;16.20;96.60;;;;;;5058277;28;20449;-67
2023/01/11 12:55:00;;;;;;;16.60;4.28;;;16.20;96.50;;;;;;5062048;28;20042;-67
2023/01/11 12:58:00;;;;;;;18.58;4.18;;;16.10;96.20;;;;;;5064422;28;20063;-67
2023/01/11 13:00:54;;;;;;;18.08;3.60;;;16.10;95.80;;;;;;5061394;28;20036;-66
2023/01/11 13:03:47;;;;;;;16.33;3.28;;;16.10;96.20;;;;;;5061178;28;20086;-66
2023/01/11 13:06:28;;;;;;;14.90;3.65;;;16.10;96.20;;;;;;5062113;28;20080;-66
2023/01/11 13:09:03;;;;;;;14.40;3.40;;;16.10;96.00;;;;;;5065850;28;20032;-66
2023/01/11 13:11:58;;;;;;;18.35;4.18;;;16.20;96.20;;;;;;5057294;28;20035;-67
2023/01/11 13:14:44;;;;;;;17.73;3.55;;;16.10;96.10;;;;;;5061934;28;20024;-68
2023/01/11 13:17:42;;;;;;;16.67;3.45;;;16.20;96.10;;;;;;5066002;28;20027;-69
2023/01/11 13:20:31;;;;;;;14.07;3.50;;;16.10;95.50;;;;;;5060877;28;20036;-67
2023/01/11 13:23:08;;;;;;;15.77;3.67;;;16.20;95.40;;;;;;5068392;28;20020;-66
2023/01/11 13:25:38;;;;;;;12.18;3.53;;;16.00;94.70;;;;;;5064189;28;20044;-66
2023/01/11 13:28:22;;;;;;;12.23;2.97;;;15.90;94.50;;;;;;5062463;28;20021;-66
2023/01/11 13:30:49;;;;;;;13.43;3.60;;;16.00;95.20;;;;;;5059882;28;20036;-67